Copper Creek, Canada
Current Conditions -  °F | °C
As of 11:33 AM on Thursday 23 Oct 2014 (Local Time) from CYKA Reporting Station
Rain Showers Rain Showers  
Wind Chill: 11°   Ceiling: 8000
Heat Index: 11°   Visibility: 40mi
Dew Point:   Wind: 13mph
Humidity: 62%   Direction: 100°E
Pressure: 29.67"   Gusts: NA
Location:  50.8°N, 120.76°W
Report Text: CYKA 231833Z 10011KT 40SM -SHRA BKN080 OVC200 11/04 A2967 RMK AC7CS1 WSHFT 1756 ACC EMBDD SLP054 DENSITY ALT 1200FT
Loading
Personal Weather Stations






























Interactive Weather Map
Tropical Storm Tracking
New forecast layout! Learn more

10-Day Weather Forecast

Advertisements
Track Severe Weather on mobile